createdAt,value
2019-01-28T00:00:52.404Z,2.30
2019-01-28T00:01:52.394Z,2.00
2019-01-28T00:02:52.385Z,2.00
2019-01-28T00:03:52.373Z,1.90
2019-01-28T00:04:52.357Z,2.10
2019-01-28T00:05:52.347Z,1.90
2019-01-28T00:06:52.334Z,2.20
2019-01-28T00:07:52.324Z,2.50
2019-01-28T00:08:52.344Z,2.00
2019-01-28T00:09:52.304Z,2.00
2019-01-28T00:10:52.297Z,2.20
2019-01-28T00:11:52.280Z,2.50
2019-01-28T00:12:52.266Z,2.40
2019-01-28T00:13:52.286Z,2.10
2019-01-28T00:14:52.233Z,2.00
2019-01-28T00:15:52.231Z,2.30
2019-01-28T00:16:52.211Z,2.10
2019-01-28T00:17:52.238Z,2.00
2019-01-28T00:18:52.183Z,2.40
2019-01-28T00:19:52.171Z,2.20
2019-01-28T00:20:52.170Z,2.30
2019-01-28T00:21:52.149Z,2.20
2019-01-28T00:22:52.143Z,2.10
2019-01-28T00:23:52.128Z,2.10
2019-01-28T00:24:52.108Z,2.50
2019-01-28T00:25:52.095Z,2.10
2019-01-28T00:26:52.086Z,2.20
2019-01-28T00:27:52.078Z,2.40
2019-01-28T00:28:52.069Z,2.40
2019-01-28T00:29:52.056Z,2.30
2019-01-28T00:30:52.034Z,2.30
2019-01-28T00:31:52.021Z,2.60
2019-01-28T00:32:52.025Z,2.20
2019-01-28T00:33:52.000Z,2.50
2019-01-28T00:34:51.995Z,2.10
2019-01-28T00:35:51.971Z,2.20
2019-01-28T00:36:51.983Z,2.50
2019-01-28T00:37:51.941Z,2.10
2019-01-28T00:38:51.937Z,1.90
2019-01-28T00:39:51.929Z,2.40
2019-01-28T00:40:51.916Z,2.50
2019-01-28T00:41:51.918Z,2.10
2019-01-28T00:42:51.890Z,2.10
2019-01-28T00:43:51.882Z,1.90
2019-01-28T00:44:51.860Z,2.40
2019-01-28T00:45:51.851Z,2.10
2019-01-28T00:46:51.838Z,2.20
2019-01-28T00:47:51.830Z,2.10
2019-01-28T00:48:51.818Z,2.10
2019-01-28T00:49:51.799Z,2.40
2019-01-28T00:50:51.793Z,2.50
2019-01-28T00:51:51.775Z,2.00
2019-01-28T00:52:51.759Z,2.50
2019-01-28T00:53:51.755Z,2.10
2019-01-28T00:54:51.755Z,2.00
2019-01-28T00:55:51.738Z,1.90
2019-01-28T00:56:51.727Z,2.20
2019-01-28T00:57:51.702Z,2.50
2019-01-28T00:58:51.686Z,2.10
2019-01-28T00:59:51.678Z,2.50
2019-01-28T01:00:51.702Z,2.10
2019-01-28T01:01:51.655Z,2.60
2019-01-28T01:02:51.642Z,2.00
2019-01-28T01:03:51.629Z,2.50
2019-01-28T01:04:51.630Z,2.10
2019-01-28T01:05:51.612Z,2.00
2019-01-28T01:06:51.595Z,2.30
2019-01-28T01:07:51.580Z,2.20
2019-01-28T01:08:51.572Z,2.00
2019-01-28T01:09:51.568Z,2.80
2019-01-28T01:10:51.547Z,2.10
2019-01-28T01:11:51.544Z,2.40
2019-01-28T01:12:51.538Z,2.40
2019-01-28T01:13:51.506Z,2.20
2019-01-28T01:14:51.517Z,2.50
2019-01-28T01:15:51.494Z,2.30
2019-01-28T01:16:51.475Z,2.20
2019-01-28T01:17:51.474Z,2.00
2019-01-28T01:18:51.461Z,2.50
2019-01-28T01:19:51.462Z,2.10
2019-01-28T01:20:51.433Z,2.20
2019-01-28T01:21:51.416Z,2.10
2019-01-28T01:22:51.405Z,2.20
2019-01-28T01:23:51.431Z,2.10
2019-01-28T01:24:51.379Z,1.90
2019-01-28T01:25:51.373Z,2.00
2019-01-28T01:26:51.352Z,2.20
2019-01-28T01:27:51.340Z,2.20
2019-01-28T01:28:51.356Z,2.40
2019-01-28T01:29:51.320Z,2.20
2019-01-28T01:30:51.326Z,2.40
2019-01-28T01:31:51.308Z,2.30
2019-01-28T01:32:51.284Z,2.30
2019-01-28T01:33:51.276Z,2.30
2019-01-28T01:34:51.268Z,2.00
2019-01-28T01:35:51.244Z,2.40
2019-01-28T01:36:51.242Z,2.40
2019-01-28T01:37:51.246Z,2.40
2019-01-28T01:38:51.230Z,2.40
2019-01-28T01:39:51.207Z,2.90
2019-01-28T01:40:51.177Z,2.70
2019-01-28T01:41:51.196Z,2.40
2019-01-28T01:42:51.165Z,2.30
2019-01-28T01:43:51.152Z,2.40
2019-01-28T01:44:51.147Z,2.30
2019-01-28T01:45:51.135Z,2.20
2019-01-28T01:46:52.396Z,3.00
2019-01-28T01:47:51.167Z,2.20
2019-01-28T01:48:51.095Z,2.00
2019-01-28T01:49:51.081Z,2.40
2019-01-28T01:50:51.081Z,2.20
2019-01-28T01:51:51.061Z,2.00
2019-01-28T01:52:51.040Z,2.20
2019-01-28T01:53:51.029Z,2.40
2019-01-28T01:54:51.030Z,2.20
2019-01-28T01:55:51.004Z,2.20
2019-01-28T01:56:51.006Z,2.40
2019-01-28T01:57:50.986Z,2.20
2019-01-28T01:58:51.135Z,2.20
2019-01-28T01:59:50.975Z,2.10
2019-01-28T02:00:50.961Z,2.40
2019-01-28T02:01:50.947Z,2.10
2019-01-28T02:02:50.928Z,2.20
2019-01-28T02:03:50.915Z,2.80
2019-01-28T02:04:50.902Z,2.40
2019-01-28T02:05:50.890Z,2.00
2019-01-28T02:06:50.874Z,2.30
2019-01-28T02:07:50.858Z,1.80
2019-01-28T02:08:50.856Z,2.10
2019-01-28T02:09:50.851Z,1.90
2019-01-28T02:10:50.839Z,2.40
2019-01-28T02:11:50.817Z,2.10
2019-01-28T02:12:50.809Z,2.00
2019-01-28T02:13:50.795Z,2.00
2019-01-28T02:14:50.776Z,1.90
2019-01-28T02:15:50.773Z,2.00
2019-01-28T02:16:50.759Z,2.30
2019-01-28T02:17:50.746Z,2.30
2019-01-28T02:18:50.734Z,2.00
2019-01-28T02:19:50.723Z,2.20
2019-01-28T02:20:50.710Z,2.60
2019-01-28T02:21:50.699Z,1.80
2019-01-28T02:22:50.686Z,2.00
2019-01-28T02:23:50.681Z,1.70
2019-01-28T02:24:50.659Z,2.20
2019-01-28T02:25:50.652Z,2.00
2019-01-28T02:26:50.640Z,1.80
2019-01-28T02:27:50.628Z,2.30
2019-01-28T02:28:50.617Z,2.10
2019-01-28T02:29:50.604Z,2.10
2019-01-28T02:30:50.593Z,1.80
2019-01-28T02:31:52.200Z,1.60
2019-01-28T02:32:50.566Z,1.80
2019-01-28T02:33:50.561Z,1.60
2019-01-28T02:34:50.660Z,1.70
2019-01-28T02:35:50.534Z,1.70
2019-01-28T02:36:50.518Z,1.70
2019-01-28T02:37:50.512Z,1.60
2019-01-28T02:38:50.497Z,1.60
2019-01-28T02:39:50.482Z,1.60
2019-01-28T02:40:50.477Z,1.50
2019-01-28T02:41:50.463Z,1.60
2019-01-28T02:42:50.469Z,1.70
2019-01-28T02:43:50.440Z,1.60
2019-01-28T02:44:50.427Z,1.50
2019-01-28T02:45:50.423Z,1.50
2019-01-28T02:46:51.159Z,1.40
2019-01-28T02:47:50.395Z,1.50
2019-01-28T02:48:50.381Z,1.50
2019-01-28T02:49:50.368Z,1.50
2019-01-28T02:50:50.356Z,1.60
2019-01-28T02:51:50.343Z,1.40
2019-01-28T02:52:50.393Z,1.40
2019-01-28T02:53:50.324Z,1.30
2019-01-28T02:54:50.306Z,1.40
2019-01-28T02:55:50.300Z,1.30
2019-01-28T02:56:50.291Z,1.30
2019-01-28T02:57:50.275Z,1.20
2019-01-28T02:58:50.262Z,1.30
2019-01-28T02:59:50.252Z,1.30
2019-01-28T03:00:50.238Z,1.20
2019-01-28T03:01:50.232Z,1.40
2019-01-28T03:02:50.215Z,1.10
2019-01-28T03:03:50.203Z,1.40
2019-01-28T03:04:50.188Z,1.40
2019-01-28T03:05:50.179Z,1.20
2019-01-28T03:06:50.170Z,1.10
2019-01-28T03:07:50.158Z,1.20
2019-01-28T03:08:50.141Z,1.30
2019-01-28T03:09:50.131Z,1.30
2019-01-28T03:10:50.127Z,1.40
2019-01-28T03:11:50.104Z,1.10
2019-01-28T03:12:50.094Z,1.10
2019-01-28T03:13:50.086Z,1.20
2019-01-28T03:14:50.075Z,1.00
2019-01-28T03:15:50.061Z,1.20
2019-01-28T03:16:50.053Z,1.20
2019-01-28T03:17:50.039Z,1.20
2019-01-28T03:18:50.026Z,1.10
2019-01-28T03:19:50.017Z,1.00
2019-01-28T03:20:50.075Z,1.00
2019-01-28T03:21:50.042Z,1.10
2019-01-28T03:22:49.978Z,1.10
2019-01-28T03:23:49.968Z,1.50
2019-01-28T03:24:49.955Z,1.20
2019-01-28T03:25:49.946Z,1.10
2019-01-28T03:26:49.934Z,1.10
2019-01-28T03:27:49.923Z,1.40
2019-01-28T03:28:49.913Z,1.00
2019-01-28T03:29:49.896Z,1.00
2019-01-28T03:30:49.891Z,1.40
2019-01-28T03:31:49.873Z,1.20
2019-01-28T03:32:49.860Z,1.20
2019-01-28T03:33:49.851Z,1.30
2019-01-28T03:34:49.837Z,1.00
2019-01-28T03:35:49.823Z,1.20
2019-01-28T03:36:49.812Z,2.10
2019-01-28T03:37:49.796Z,0.90
2019-01-28T03:38:49.791Z,1.20
2019-01-28T03:39:49.776Z,1.60
2019-01-28T03:40:49.767Z,1.20
2019-01-28T03:41:49.756Z,1.20
2019-01-28T03:42:49.741Z,1.30
2019-01-28T03:43:49.731Z,1.00
2019-01-28T03:44:49.715Z,1.30
2019-01-28T03:45:49.703Z,1.20
2019-01-28T03:46:49.694Z,1.10
2019-01-28T03:47:49.680Z,1.10
2019-01-28T03:48:49.671Z,1.00
2019-01-28T03:49:49.657Z,1.70
2019-01-28T03:50:49.653Z,1.30
2019-01-28T03:51:49.632Z,1.00
2019-01-28T03:52:49.619Z,1.10
2019-01-28T03:53:49.610Z,1.10
2019-01-28T03:54:49.594Z,0.90
2019-01-28T03:55:49.585Z,1.00
2019-01-28T03:56:49.570Z,1.40
2019-01-28T03:57:49.564Z,1.10
2019-01-28T03:58:49.547Z,1.20
2019-01-28T03:59:49.537Z,1.10
2019-01-28T04:00:49.524Z,1.10
2019-01-28T04:01:49.511Z,1.20
2019-01-28T04:02:49.496Z,1.20
2019-01-28T04:03:49.483Z,1.00
2019-01-28T04:04:49.477Z,0.90
2019-01-28T04:05:49.463Z,1.20
2019-01-28T04:06:49.450Z,1.00
2019-01-28T04:07:49.441Z,1.10
2019-01-28T04:08:49.425Z,1.10
2019-01-28T04:09:49.411Z,1.00
2019-01-28T04:10:49.404Z,1.00
2019-01-28T04:11:49.402Z,0.90
2019-01-28T04:12:49.377Z,0.90
2019-01-28T04:13:49.368Z,0.90
2019-01-28T04:14:49.355Z,1.00
2019-01-28T04:15:49.340Z,0.80
2019-01-28T04:16:49.332Z,1.10
2019-01-28T04:17:49.322Z,0.90
2019-01-28T04:18:49.302Z,1.00
2019-01-28T04:19:49.293Z,1.20
2019-01-28T04:20:49.284Z,0.80
2019-01-28T04:21:49.271Z,0.90
2019-01-28T04:22:49.253Z,1.00
2019-01-28T04:23:49.242Z,1.00
2019-01-28T04:24:49.232Z,1.00
2019-01-28T04:25:49.229Z,0.90
2019-01-28T04:26:49.210Z,1.00
2019-01-28T04:27:49.192Z,0.80
2019-01-28T04:28:49.185Z,0.80
2019-01-28T04:29:49.187Z,0.90
2019-01-28T04:30:49.161Z,0.90
2019-01-28T04:31:49.150Z,0.90
2019-01-28T04:32:49.137Z,0.90
2019-01-28T04:33:49.123Z,1.00
2019-01-28T04:34:49.126Z,0.80
2019-01-28T04:35:49.095Z,0.80
2019-01-28T04:36:49.081Z,0.90
2019-01-28T04:37:49.078Z,1.00
2019-01-28T04:38:49.063Z,0.80
2019-01-28T04:39:49.050Z,0.90
2019-01-28T04:40:49.043Z,1.00
2019-01-28T04:41:49.025Z,0.90
2019-01-28T04:42:49.013Z,0.90
2019-01-28T04:43:49.001Z,0.90
2019-01-28T04:44:48.989Z,0.80
2019-01-28T04:45:48.983Z,0.90
2019-01-28T04:46:48.963Z,1.00
2019-01-28T04:47:48.961Z,0.90
2019-01-28T04:48:48.934Z,0.90
2019-01-28T04:49:48.932Z,1.10
2019-01-28T04:50:48.912Z,0.90
2019-01-28T04:51:48.902Z,0.80
2019-01-28T04:52:48.889Z,1.10
2019-01-28T04:53:48.878Z,1.00
2019-01-28T04:54:48.862Z,1.30
2019-01-28T04:55:48.860Z,1.20
2019-01-28T04:56:48.840Z,1.60
2019-01-28T04:57:48.841Z,1.20
2019-01-28T04:58:49.751Z,1.20
2019-01-28T04:59:48.802Z,0.90
2019-01-28T05:00:48.785Z,0.90
2019-01-28T05:01:48.774Z,0.90
2019-01-28T05:02:48.765Z,1.00
2019-01-28T05:03:48.756Z,1.10
2019-01-28T05:04:48.744Z,0.90
2019-01-28T05:05:48.731Z,1.20
2019-01-28T05:06:48.727Z,0.90
2019-01-28T05:07:48.701Z,0.70
2019-01-28T05:08:48.689Z,0.90
2019-01-28T05:09:48.677Z,0.80
2019-01-28T05:10:48.667Z,0.80
2019-01-28T05:11:48.652Z,0.90
2019-01-28T05:12:48.640Z,0.90
2019-01-28T05:13:48.633Z,1.00
2019-01-28T05:14:48.612Z,0.90
2019-01-28T05:15:48.602Z,0.90
2019-01-28T05:16:48.591Z,0.90
2019-01-28T05:17:48.583Z,0.90
2019-01-28T05:18:48.561Z,0.90
2019-01-28T05:19:48.553Z,0.90
2019-01-28T05:20:48.544Z,0.70
2019-01-28T05:21:48.534Z,0.80
2019-01-28T05:22:48.539Z,0.90
2019-01-28T05:23:48.515Z,0.90
2019-01-28T05:24:48.492Z,0.90
2019-01-28T05:25:48.482Z,0.90
2019-01-28T05:26:48.475Z,0.70
2019-01-28T05:27:48.466Z,0.70
2019-01-28T05:28:48.443Z,0.80
2019-01-28T05:29:48.429Z,0.80
2019-01-28T05:30:48.417Z,0.80
2019-01-28T05:31:48.406Z,0.80
2019-01-28T05:32:48.391Z,0.80
2019-01-28T05:33:48.374Z,0.90
2019-01-28T05:34:48.367Z,0.80
2019-01-28T05:35:48.366Z,0.90
2019-01-28T05:36:48.343Z,0.80
2019-01-28T05:37:48.329Z,0.90
2019-01-28T05:38:48.315Z,0.70
2019-01-28T05:39:48.301Z,0.90
2019-01-28T05:40:48.295Z,0.80
2019-01-28T05:41:48.287Z,0.90
2019-01-28T05:42:48.271Z,0.80
2019-01-28T05:43:48.263Z,0.70
2019-01-28T05:44:50.097Z,0.70
2019-01-28T05:45:48.244Z,0.80
2019-01-28T05:46:48.223Z,0.80
2019-01-28T05:47:48.215Z,0.80
2019-01-28T05:48:48.194Z,0.90
2019-01-28T05:49:48.180Z,0.90
2019-01-28T05:50:48.169Z,1.00
2019-01-28T05:51:48.157Z,0.90
2019-01-28T05:52:48.145Z,1.00
2019-01-28T05:53:48.139Z,0.90
2019-01-28T05:54:48.121Z,1.00
2019-01-28T05:55:48.108Z,1.00
2019-01-28T05:56:48.093Z,0.80
2019-01-28T05:57:48.093Z,0.80
2019-01-28T05:58:48.068Z,0.90
2019-01-28T05:59:48.053Z,0.90
2019-01-28T06:00:48.050Z,0.90
2019-01-28T06:01:48.035Z,0.90
2019-01-28T06:02:48.017Z,1.10
2019-01-28T06:03:48.006Z,1.00
2019-01-28T06:04:47.991Z,1.00
2019-01-28T06:05:47.979Z,1.10
2019-01-28T06:06:47.966Z,1.20
2019-01-28T06:07:47.952Z,1.20
2019-01-28T06:08:47.943Z,1.20
2019-01-28T06:09:47.929Z,0.80
2019-01-28T06:10:47.921Z,0.90
2019-01-28T06:11:47.903Z,0.90
2019-01-28T06:12:47.890Z,1.00
2019-01-28T06:13:47.884Z,0.90
2019-01-28T06:14:47.865Z,0.80
2019-01-28T06:15:47.851Z,1.20
2019-01-28T06:16:47.839Z,0.80
2019-01-28T06:17:47.830Z,0.90
2019-01-28T06:18:47.812Z,1.10
2019-01-28T06:19:47.802Z,0.90
2019-01-28T06:20:47.787Z,0.80
2019-01-28T06:21:47.779Z,0.90
2019-01-28T06:22:47.762Z,0.90
2019-01-28T06:23:47.754Z,0.90
2019-01-28T06:24:47.739Z,0.80
2019-01-28T06:25:47.726Z,1.10
2019-01-28T06:26:47.713Z,0.90
2019-01-28T06:27:47.703Z,1.10
2019-01-28T06:28:47.682Z,0.80
2019-01-28T06:29:47.676Z,1.10
2019-01-28T06:30:47.661Z,0.80
2019-01-28T06:31:47.644Z,0.90
2019-01-28T06:32:47.632Z,1.00
2019-01-28T06:33:47.625Z,1.10
2019-01-28T06:34:47.611Z,1.00
2019-01-28T06:35:47.597Z,1.10
2019-01-28T06:36:47.584Z,1.00
2019-01-28T06:37:47.578Z,1.20
2019-01-28T06:38:47.561Z,0.90
2019-01-28T06:39:47.549Z,1.20
2019-01-28T06:40:47.540Z,1.00
2019-01-28T06:41:47.524Z,1.00
2019-01-28T06:42:47.509Z,0.80
2019-01-28T06:43:47.493Z,1.00
2019-01-28T06:44:47.492Z,1.00
2019-01-28T06:45:47.478Z,0.90
2019-01-28T06:46:47.467Z,1.00
2019-01-28T06:47:47.457Z,0.90
2019-01-28T06:48:47.436Z,1.00
2019-01-28T06:49:47.421Z,1.00
2019-01-28T06:50:47.411Z,1.20
2019-01-28T06:51:47.398Z,1.00
2019-01-28T06:52:47.396Z,1.00
2019-01-28T06:53:47.374Z,0.80
2019-01-28T06:54:47.357Z,1.00
2019-01-28T06:55:47.343Z,1.00
2019-01-28T06:56:47.329Z,1.10
2019-01-28T06:57:47.319Z,1.00
2019-01-28T06:58:47.306Z,1.10
2019-01-28T06:59:47.292Z,0.90
2019-01-28T07:00:47.275Z,1.30
2019-01-28T07:01:47.268Z,1.10
2019-01-28T07:02:47.253Z,1.00
2019-01-28T07:03:47.245Z,1.10
2019-01-28T07:04:47.239Z,1.40
2019-01-28T07:05:47.214Z,1.30
2019-01-28T07:06:47.203Z,1.10
2019-01-28T07:07:47.195Z,1.30
2019-01-28T07:08:47.180Z,1.10
2019-01-28T07:09:47.167Z,1.10
2019-01-28T07:10:47.155Z,1.20
2019-01-28T07:11:47.141Z,1.20
2019-01-28T07:12:47.130Z,1.00
2019-01-28T07:13:47.115Z,1.30
2019-01-28T07:14:47.108Z,1.30
2019-01-28T07:15:47.089Z,1.00
2019-01-28T07:16:47.077Z,1.30
2019-01-28T07:17:54.386Z,1.20
2019-01-28T07:18:47.052Z,1.00
2019-01-28T07:19:47.047Z,1.30
2019-01-28T07:20:47.032Z,1.10
2019-01-28T07:21:47.016Z,1.00
2019-01-28T07:22:47.009Z,1.20
2019-01-28T07:23:46.989Z,1.30
2019-01-28T07:24:46.975Z,1.10
2019-01-28T07:25:46.961Z,1.00
2019-01-28T07:26:46.953Z,1.00
2019-01-28T07:27:46.937Z,1.20
2019-01-28T07:28:46.936Z,1.30
2019-01-28T07:29:46.913Z,1.00
2019-01-28T07:30:46.922Z,1.10
2019-01-28T07:31:46.884Z,1.00
2019-01-28T07:32:46.881Z,1.00
2019-01-28T07:33:46.860Z,1.00
2019-01-28T07:34:46.853Z,1.10
2019-01-28T07:35:46.836Z,1.10
2019-01-28T07:36:46.827Z,1.00
2019-01-28T07:37:46.809Z,1.20
2019-01-28T07:38:46.796Z,1.10
2019-01-28T07:39:46.787Z,0.80
2019-01-28T07:40:46.770Z,1.10
2019-01-28T07:41:46.757Z,1.10
2019-01-28T07:42:46.746Z,1.10
2019-01-28T07:43:46.735Z,1.00
2019-01-28T07:44:46.716Z,1.10
2019-01-28T07:45:46.722Z,1.00
2019-01-28T07:46:46.689Z,1.30
2019-01-28T07:47:46.681Z,1.10
2019-01-28T07:48:46.669Z,1.10
2019-01-28T07:49:46.657Z,1.00
2019-01-28T07:50:46.645Z,0.80
2019-01-28T07:51:46.635Z,0.80
2019-01-28T07:52:46.621Z,1.00
2019-01-28T07:53:46.606Z,1.10
2019-01-28T07:54:46.588Z,1.20
2019-01-28T07:55:46.587Z,1.00
2019-01-28T07:56:46.568Z,1.00
2019-01-28T07:57:46.578Z,0.90
2019-01-28T07:58:46.544Z,1.10
2019-01-28T07:59:55.733Z,1.10
2019-01-28T08:01:50.483Z,1.10
2019-01-28T08:02:50.449Z,1.30
2019-01-28T08:04:43.328Z,1.40
2019-01-28T08:05:43.306Z,1.10
2019-01-28T08:07:47.142Z,1.00
2019-01-28T08:08:47.101Z,0.90
2019-01-28T08:10:51.058Z,1.10
2019-01-28T08:11:51.082Z,1.20
2019-01-28T08:13:54.949Z,1.10
2019-01-28T08:14:54.935Z,1.00
2019-01-28T08:16:58.884Z,1.10
2019-01-28T08:17:58.848Z,1.00
2019-01-28T08:20:02.782Z,1.10
2019-01-28T08:21:02.765Z,1.10
2019-01-28T08:23:06.720Z,1.30
2019-01-28T08:24:07.202Z,1.30
2019-01-28T08:26:10.662Z,1.00
2019-01-28T08:27:10.624Z,1.20
2019-01-28T08:29:14.546Z,1.20
2019-01-28T08:30:14.535Z,1.30
2019-01-28T08:32:07.432Z,1.20
2019-01-28T08:33:07.396Z,1.10
2019-01-28T08:34:07.385Z,1.20
2019-01-28T08:35:07.366Z,1.20
2019-01-28T08:36:07.353Z,1.20
2019-01-28T08:37:07.340Z,1.00
2019-01-28T08:38:07.325Z,1.20
2019-01-28T08:39:07.315Z,1.20
2019-01-28T08:40:07.301Z,1.00
2019-01-28T08:41:07.291Z,1.40
2019-01-28T08:42:07.276Z,1.10
2019-01-28T08:43:07.261Z,1.10
2019-01-28T08:44:07.256Z,1.30
2019-01-28T08:45:07.238Z,1.10
2019-01-28T08:46:07.223Z,1.00
2019-01-28T08:47:08.514Z,1.40
2019-01-28T08:48:07.193Z,1.40
2019-01-28T08:49:07.180Z,1.10
2019-01-28T08:50:07.167Z,1.40
2019-01-28T08:51:07.157Z,1.30
2019-01-28T08:52:07.140Z,1.40
2019-01-28T08:53:07.196Z,1.40
2019-01-28T08:54:07.118Z,1.30
2019-01-28T08:55:07.102Z,1.50
2019-01-28T08:56:07.094Z,1.10
2019-01-28T08:57:07.076Z,1.10
2019-01-28T08:58:07.061Z,1.10
2019-01-28T08:59:07.053Z,1.50
2019-01-28T09:00:07.033Z,1.10
2019-01-28T09:01:07.025Z,1.00
2019-01-28T09:02:07.016Z,1.10
2019-01-28T09:03:06.998Z,1.10
2019-01-28T09:04:06.981Z,1.10
2019-01-28T09:05:06.967Z,1.60
2019-01-28T09:06:06.957Z,1.20
2019-01-28T09:07:06.946Z,1.10
2019-01-28T09:08:06.964Z,1.20
2019-01-28T09:09:06.918Z,1.20
2019-01-28T09:10:06.900Z,1.30
2019-01-28T09:11:06.888Z,1.10
2019-01-28T09:12:06.881Z,1.20
2019-01-28T09:13:06.864Z,1.30
2019-01-28T09:14:06.852Z,1.50
2019-01-28T09:15:06.836Z,1.30
2019-01-28T09:16:06.827Z,1.20
2019-01-28T09:17:06.815Z,1.30
2019-01-28T09:18:06.805Z,1.10
2019-01-28T09:19:06.788Z,1.40
2019-01-28T09:20:06.769Z,1.40
2019-01-28T09:21:06.808Z,1.00
2019-01-28T09:22:06.749Z,1.10
2019-01-28T09:23:06.733Z,1.40
2019-01-28T09:24:06.717Z,1.80
2019-01-28T09:25:06.707Z,1.50
2019-01-28T09:26:06.711Z,1.20
2019-01-28T09:27:06.678Z,1.30
2019-01-28T09:28:06.662Z,1.30
2019-01-28T09:29:06.657Z,1.10
2019-01-28T09:30:06.643Z,1.30
2019-01-28T09:31:06.626Z,1.10
2019-01-28T09:32:06.610Z,1.10
2019-01-28T09:33:06.601Z,1.10
2019-01-28T09:34:06.588Z,1.20
2019-01-28T09:35:06.571Z,1.10
2019-01-28T09:36:06.566Z,1.30
2019-01-28T09:37:06.546Z,1.20
2019-01-28T09:38:06.537Z,1.30
2019-01-28T09:39:06.535Z,1.30
2019-01-28T09:40:06.508Z,1.40
2019-01-28T09:41:06.500Z,1.30
2019-01-28T09:42:06.484Z,1.50
2019-01-28T09:43:06.473Z,1.10
2019-01-28T09:44:06.465Z,1.20
2019-01-28T09:45:06.445Z,1.20
2019-01-28T09:46:06.433Z,1.40
2019-01-28T09:47:06.425Z,1.30
2019-01-28T09:48:06.409Z,1.30
2019-01-28T09:49:06.399Z,1.20
2019-01-28T09:50:06.379Z,1.30
2019-01-28T09:51:06.370Z,1.20
2019-01-28T09:52:06.359Z,1.20
2019-01-28T09:53:06.344Z,1.00
2019-01-28T09:54:06.379Z,1.50
2019-01-28T09:55:06.316Z,1.20
2019-01-28T09:56:06.306Z,1.40
2019-01-28T09:57:06.290Z,1.10
2019-01-28T09:58:06.277Z,1.30
2019-01-28T09:59:06.270Z,1.10
2019-01-28T10:00:06.253Z,1.30
2019-01-28T10:01:06.243Z,1.00
2019-01-28T10:02:06.232Z,1.10
2019-01-28T10:03:06.219Z,1.00
2019-01-28T10:04:06.201Z,1.30
2019-01-28T10:05:06.185Z,1.10
2019-01-28T10:06:06.180Z,1.00
2019-01-28T10:07:06.162Z,1.10
2019-01-28T10:08:06.171Z,1.10
2019-01-28T10:09:10.189Z,1.00
2019-01-28T10:10:06.120Z,1.10
2019-01-28T10:11:06.110Z,1.10
2019-01-28T10:12:06.097Z,1.20
2019-01-28T10:13:06.081Z,1.30
2019-01-28T10:14:06.074Z,1.20
2019-01-28T10:15:06.056Z,1.00
2019-01-28T10:16:06.049Z,1.00
2019-01-28T10:17:06.033Z,1.20
2019-01-28T10:18:06.017Z,1.10
2019-01-28T10:19:06.009Z,1.40
2019-01-28T10:20:05.991Z,1.00
2019-01-28T10:21:05.981Z,1.10
2019-01-28T10:22:05.973Z,1.00
2019-01-28T10:23:05.959Z,0.90
2019-01-28T10:24:05.949Z,1.40
2019-01-28T10:25:05.926Z,1.10
2019-01-28T10:26:05.915Z,1.30
2019-01-28T10:27:05.904Z,1.10
2019-01-28T10:28:05.890Z,1.30
2019-01-28T10:29:05.875Z,1.10
2019-01-28T10:30:05.864Z,1.40
2019-01-28T10:31:05.852Z,1.00
2019-01-28T10:32:05.842Z,1.20
2019-01-28T10:33:05.825Z,1.20
2019-01-28T10:34:06.446Z,1.10
2019-01-28T10:35:05.803Z,1.30
2019-01-28T10:36:05.789Z,1.30
2019-01-28T10:37:05.775Z,1.30
2019-01-28T10:38:05.759Z,1.20
2019-01-28T10:39:05.750Z,1.60
2019-01-28T10:40:07.090Z,1.60
2019-01-28T10:41:05.723Z,1.80
2019-01-28T10:42:09.847Z,1.20
2019-01-28T10:43:05.695Z,1.50
2019-01-28T10:44:10.106Z,2.00
2019-01-28T10:45:05.668Z,1.70
2019-01-28T10:46:05.659Z,1.40
2019-01-28T10:47:05.650Z,1.60
2019-01-28T10:48:05.631Z,1.20
2019-01-28T10:49:05.619Z,1.50
2019-01-28T10:50:05.608Z,1.50
2019-01-28T10:51:05.591Z,1.30
2019-01-28T10:52:05.584Z,1.20
2019-01-28T10:53:05.567Z,1.20
2019-01-28T10:54:05.559Z,1.50
2019-01-28T10:55:05.545Z,1.70
2019-01-28T10:56:05.533Z,1.10
2019-01-28T10:57:05.521Z,1.20
2019-01-28T10:58:05.503Z,1.50
2019-01-28T10:59:05.494Z,1.40
2019-01-28T11:00:05.480Z,1.50
2019-01-28T11:01:05.471Z,1.40
2019-01-28T11:02:05.456Z,1.10
2019-01-28T11:03:05.441Z,1.30
2019-01-28T11:04:05.472Z,1.30
2019-01-28T11:05:05.421Z,1.00
2019-01-28T11:06:05.402Z,1.10
2019-01-28T11:07:05.393Z,1.10
2019-01-28T11:08:05.380Z,1.60
2019-01-28T11:09:05.368Z,1.10
2019-01-28T11:10:05.353Z,1.20
2019-01-28T11:11:05.356Z,0.90
2019-01-28T11:12:05.415Z,1.20
2019-01-28T11:13:05.355Z,1.10
2019-01-28T11:14:05.343Z,1.20
2019-01-28T11:15:05.330Z,1.00
2019-01-28T11:16:05.392Z,1.40
2019-01-28T11:17:05.326Z,1.10
2019-01-28T11:18:05.329Z,1.30
2019-01-28T11:19:05.368Z,1.00
2019-01-28T11:20:05.263Z,1.40
2019-01-28T11:21:05.299Z,1.60
2019-01-28T11:22:05.203Z,1.40
2019-01-28T11:23:05.197Z,1.20
2019-01-28T11:24:05.254Z,1.40
2019-01-28T11:25:05.204Z,1.00
2019-01-28T11:26:05.203Z,1.30
2019-01-28T11:27:05.267Z,1.10
2019-01-28T11:28:05.212Z,1.10
2019-01-28T11:29:05.220Z,1.20
2019-01-28T11:30:05.131Z,1.20
2019-01-28T11:31:05.251Z,1.10
2019-01-28T11:32:05.232Z,1.10
2019-01-28T11:33:05.109Z,0.90
2019-01-28T11:34:05.114Z,1.20
2019-01-28T11:35:05.171Z,1.10
2019-01-28T11:36:05.884Z,1.10
2019-01-28T11:37:05.027Z,1.30
2019-01-28T11:38:05.027Z,0.90
2019-01-28T11:39:05.107Z,1.10
2019-01-28T11:40:05.063Z,1.10
2019-01-28T11:41:04.995Z,1.20
2019-01-28T11:42:05.032Z,1.10
2019-01-28T11:43:05.072Z,1.10
2019-01-28T11:44:04.944Z,1.10
2019-01-28T11:45:05.046Z,1.20
2019-01-28T11:46:05.000Z,1.10
2019-01-28T11:47:04.898Z,1.00
2019-01-28T11:48:04.886Z,1.10
2019-01-28T11:49:06.039Z,1.10
2019-01-28T11:50:04.877Z,1.10
2019-01-28T11:51:04.856Z,1.30
2019-01-28T11:52:04.839Z,1.20
2019-01-28T11:53:04.825Z,1.10
2019-01-28T11:54:04.825Z,1.30
2019-01-28T11:55:04.806Z,1.00
2019-01-28T11:56:04.800Z,1.00
2019-01-28T11:57:04.780Z,1.10
2019-01-28T11:58:04.769Z,1.00
2019-01-28T11:59:04.756Z,1.10
2019-01-28T12:00:04.741Z,1.00
2019-01-28T12:01:04.782Z,1.30
2019-01-28T12:02:04.726Z,1.00
2019-01-28T12:03:04.710Z,1.10
2019-01-28T12:04:04.698Z,1.10
2019-01-28T12:05:04.684Z,1.10
2019-01-28T12:06:04.679Z,0.90
2019-01-28T12:07:04.660Z,1.00
2019-01-28T12:08:04.649Z,1.00
2019-01-28T12:09:04.640Z,1.00
2019-01-28T12:10:04.626Z,1.10
2019-01-28T12:11:04.618Z,1.10
2019-01-28T12:12:04.607Z,1.00
2019-01-28T12:13:04.589Z,1.00
2019-01-28T12:14:04.582Z,0.90
2019-01-28T12:15:04.566Z,1.00
2019-01-28T12:16:04.561Z,1.20
2019-01-28T12:17:04.546Z,1.20
2019-01-28T12:18:05.965Z,1.10
2019-01-28T12:19:04.530Z,1.30
2019-01-28T12:20:04.509Z,1.10
2019-01-28T12:21:04.505Z,1.20
2019-01-28T12:22:04.482Z,1.30
2019-01-28T12:23:04.478Z,1.30
2019-01-28T12:24:04.467Z,1.40
2019-01-28T12:25:04.451Z,1.30
2019-01-28T12:26:04.442Z,1.00
2019-01-28T12:27:04.428Z,0.90
2019-01-28T12:28:04.416Z,1.20
2019-01-28T12:29:04.405Z,1.10
2019-01-28T12:30:04.391Z,1.20
2019-01-28T12:31:04.381Z,1.00
2019-01-28T12:32:04.366Z,1.00
2019-01-28T12:33:04.353Z,1.10
2019-01-28T12:34:04.346Z,1.00
2019-01-28T12:35:04.334Z,1.00
2019-01-28T12:36:04.329Z,0.80
2019-01-28T12:37:04.308Z,1.00
2019-01-28T12:38:04.312Z,1.10
2019-01-28T12:39:04.282Z,1.30
2019-01-28T12:40:04.271Z,1.10
2019-01-28T12:41:04.263Z,0.90
2019-01-28T12:42:05.772Z,0.90
2019-01-28T12:43:04.244Z,1.20
2019-01-28T12:44:04.226Z,1.20
2019-01-28T12:45:04.216Z,1.00
2019-01-28T12:46:04.200Z,1.10
2019-01-28T12:47:04.194Z,0.90
2019-01-28T12:48:04.179Z,1.10
2019-01-28T12:49:04.176Z,1.10
2019-01-28T12:50:04.152Z,1.10
2019-01-28T12:51:04.142Z,1.00
2019-01-28T12:52:04.133Z,0.90
2019-01-28T12:53:04.120Z,1.00
2019-01-28T12:54:04.113Z,0.90
2019-01-28T12:55:04.095Z,1.00
2019-01-28T12:56:04.089Z,1.10
2019-01-28T12:57:04.075Z,1.10
2019-01-28T12:58:04.060Z,1.10
2019-01-28T12:59:09.014Z,0.90
2019-01-28T13:00:04.034Z,0.90
2019-01-28T13:01:04.028Z,0.90
2019-01-28T13:02:04.009Z,0.90
2019-01-28T13:03:03.999Z,0.90
2019-01-28T13:04:03.990Z,0.90
2019-01-28T13:05:03.977Z,0.90
2019-01-28T13:06:03.962Z,0.80
2019-01-28T13:07:03.959Z,0.90
2019-01-28T13:08:03.943Z,0.80
2019-01-28T13:09:03.943Z,0.80
2019-01-28T13:10:03.918Z,0.90
2019-01-28T13:11:03.906Z,0.90
2019-01-28T13:12:03.890Z,0.90
2019-01-28T13:13:03.881Z,0.90
2019-01-28T13:14:03.877Z,0.90
2019-01-28T13:15:03.858Z,1.00
2019-01-28T13:16:03.850Z,1.10
2019-01-28T13:17:03.837Z,1.00
2019-01-28T13:18:03.823Z,1.00
2019-01-28T13:19:03.810Z,0.80
2019-01-28T13:20:03.799Z,0.90
2019-01-28T13:21:03.787Z,1.10
2019-01-28T13:22:03.773Z,0.90
2019-01-28T13:23:03.762Z,0.90
2019-01-28T13:24:03.754Z,0.90
2019-01-28T13:25:03.737Z,0.90
2019-01-28T13:26:03.726Z,1.00
2019-01-28T13:27:03.715Z,0.90
2019-01-28T13:28:03.759Z,0.80
2019-01-28T13:29:03.692Z,0.80
2019-01-28T13:30:03.684Z,0.90